Time;durP1;ratioP1;P1;durP2;ratioP2;P2;SDS_P1;SDS_P2;PMS_P1;PMS_P2;Temp;Humidity;BMP_temperature;BMP_pressure;BME280_temperature;BME280_humidity;BME280_pressure;Samples;Min_cycle;Max_cycle;Signal;HPM_P1;HPM_P2
2023/07/24 00:02:28;;;;;;;14.27;5.50;;;;;;;21.01;58.58;100443.73;127099;1086;104188;-80
2023/07/24 00:04:57;;;;;;;13.80;5.90;;;;;;;21.01;59.12;100448.20;127006;1086;104216;-80
2023/07/24 00:07:25;;;;;;;12.47;5.63;;;;;;;20.98;58.93;100435.76;126865;1086;101847;-80
2023/07/24 00:09:55;;;;;;;12.77;5.63;;;;;;;20.96;58.56;100436.69;127097;1086;102012;-81
2023/07/24 00:12:24;;;;;;;11.20;5.57;;;;;;;20.90;59.10;100440.28;127023;1086;101790;-80
2023/07/24 00:14:54;;;;;;;12.13;5.70;;;;;;;20.87;58.64;100437.63;127006;1086;104293;-80
2023/07/24 00:17:22;;;;;;;11.93;5.77;;;;;;;20.82;58.89;100440.33;126935;1086;102072;-80
2023/07/24 00:19:51;;;;;;;13.57;5.93;;;;;;;20.77;59.63;100433.25;126976;1086;104220;-80
2023/07/24 00:22:19;;;;;;;15.93;7.30;;;;;;;20.73;60.10;100439.52;126996;1086;104168;-80
2023/07/24 00:24:48;;;;;;;11.70;6.13;;;;;;;20.69;60.31;100441.30;126952;1086;102218;-80
2023/07/24 00:27:16;;;;;;;11.40;5.80;;;;;;;20.63;60.48;100442.22;127061;1086;104168;-78
2023/07/24 00:29:45;;;;;;;14.80;6.00;;;;;;;20.61;60.23;100443.11;126883;1086;104273;-80
2023/07/24 00:32:14;;;;;;;13.30;6.43;;;;;;;20.57;60.85;100439.59;127137;1086;101858;-79
2023/07/24 00:34:42;;;;;;;11.57;5.63;;;;;;;20.58;60.75;100438.67;126815;1086;104107;-79
2023/07/24 00:37:11;;;;;;;11.83;6.13;;;;;;;20.58;60.00;100436.01;126973;1086;104146;-79
2023/07/24 00:39:39;;;;;;;11.53;5.93;;;;;;;20.53;61.64;100434.29;127032;1086;104291;-80
2023/07/24 00:42:08;;;;;;;12.80;6.23;;;;;;;20.47;60.76;100437.86;126933;1086;104204;-79
2023/07/24 00:44:37;;;;;;;11.23;5.77;;;;;;;20.42;61.78;100434.35;126946;1086;104092;-79
2023/07/24 00:47:06;;;;;;;12.43;5.70;;;;;;;20.46;61.49;100436.99;126985;1086;104254;-79
2023/07/24 00:49:36;;;;;;;10.77;5.90;;;;;;;20.45;61.75;100439.66;127003;1086;104171;-80
2023/07/24 00:52:05;;;;;;;11.87;6.77;;;;;;;20.39;61.55;100439.70;127017;1086;102175;-80
2023/07/24 00:54:35;;;;;;;15.87;6.70;;;;;;;20.35;61.40;100437.93;127050;1086;104155;-79
2023/07/24 00:57:05;;;;;;;15.90;8.73;;;;;;;20.31;62.38;100439.73;127110;1086;103066;-79
2023/07/24 00:59:34;;;;;;;19.20;9.60;;;;;;;20.24;62.56;100436.23;127035;1086;104152;-79
2023/07/24 01:02:04;;;;;;;22.60;12.80;;;;;;;20.19;62.08;100435.34;127019;1086;104162;-79
2023/07/24 01:04:33;;;;;;;23.57;13.17;;;;;;;20.19;63.02;100429.14;127004;1086;101833;-80
2023/07/24 01:07:02;;;;;;;24.70;15.27;;;;;;;20.23;62.27;100430.91;126999;1086;104165;-79
2023/07/24 01:09:30;;;;;;;26.23;17.43;;;;;;;20.20;61.86;100429.13;126959;1086;104232;-79
2023/07/24 01:12:03;;;;;;;27.30;19.37;;;;;;;20.20;62.33;100434.46;127065;1086;104293;-79
2023/07/24 01:14:43;;;;;;;29.20;18.40;;;;;;;20.19;62.04;100434.47;127039;1085;104162;-80
2023/07/24 01:17:16;;;;;;;27.57;15.60;;;;;;;20.17;62.18;100436.27;127000;1086;104232;-80
2023/07/24 01:19:49;;;;;;;24.00;13.87;;;;;;;20.11;62.67;100434.50;126944;1086;104223;-79
2023/07/24 01:22:39;;;;;;;21.77;12.27;;;;;;;20.08;63.30;100432.73;127004;1085;101852;-79
2023/07/24 01:25:19;;;;;;;18.33;9.30;;;;;;;20.10;62.46;100441.62;126927;1085;104300;-80
2023/07/24 01:27:49;;;;;;;17.70;9.00;;;;;;;20.02;63.30;100431.88;127011;1085;102679;-80
2023/07/24 01:30:19;;;;;;;17.57;8.33;;;;;;;19.95;63.18;100432.81;127002;1086;104172;-81
2023/07/24 01:32:50;;;;;;;14.67;7.50;;;;;;;19.87;62.90;100433.72;127054;1084;104165;-80
2023/07/24 01:35:19;;;;;;;13.70;7.13;;;;;;;19.79;64.24;100426.63;127009;1086;102108;-81
2023/07/24 01:37:48;;;;;;;15.00;7.20;;;;;;;19.71;63.78;100427.53;127155;1085;104213;-80
2023/07/24 01:40:17;;;;;;;11.77;6.73;;;;;;;19.67;63.80;100425.76;127027;1086;104148;-79
2023/07/24 01:42:46;;;;;;;13.10;5.87;;;;;;;19.64;63.91;100431.09;127051;1086;101871;-79
2023/07/24 01:45:14;;;;;;;11.77;6.90;;;;;;;19.64;63.67;100433.75;126958;1086;101855;-79
2023/07/24 01:47:43;;;;;;;14.67;7.17;;;;;;;19.65;64.42;100432.88;127087;1086;104066;-80
2023/07/24 01:50:12;;;;;;;15.30;6.83;;;;;;;19.73;64.51;100425.73;127001;1086;102099;-79
2023/07/24 01:52:41;;;;;;;12.97;6.93;;;;;;;19.83;64.39;100429.28;127002;1086;104040;-79
2023/07/24 01:55:10;;;;;;;13.17;6.60;;;;;;;19.85;64.25;100426.61;127001;1086;104200;-80
2023/07/24 01:57:38;;;;;;;12.10;6.43;;;;;;;19.81;64.63;100428.41;127019;1086;102233;-80
2023/07/24 02:00:09;;;;;;;14.17;6.33;;;;;;;19.72;64.14;100431.06;127018;1086;104143;-80
2023/07/24 02:02:38;;;;;;;12.63;6.83;;;;;;;19.60;65.17;100434.64;127029;1086;104204;-80
2023/07/24 02:05:08;;;;;;;12.63;6.27;;;;;;;19.55;64.50;100434.64;126947;1086;104197;-79
2023/07/24 02:07:37;;;;;;;13.63;6.60;;;;;;;19.51;65.07;100434.66;126972;1085;104162;-80
2023/07/24 02:10:08;;;;;;;13.65;6.40;;;;;;;19.43;65.31;100439.11;126934;1086;104348;-80
2023/07/24 02:12:36;;;;;;;11.03;6.00;;;;;;;19.40;64.86;100443.56;127146;1086;103001;-79
2023/07/24 02:15:07;;;;;;;13.03;6.50;;;;;;;19.38;65.74;100433.80;127084;1085;104155;-80
2023/07/24 02:17:35;;;;;;;14.30;6.80;;;;;;;19.34;65.75;100440.03;127078;1086;104232;-80
2023/07/24 02:20:05;;;;;;;12.93;6.07;;;;;;;19.31;65.97;100443.58;126977;1086;104403;-80
2023/07/24 02:22:34;;;;;;;16.27;6.50;;;;;;;19.28;65.77;100446.23;126984;1086;102015;-80
2023/07/24 02:25:02;;;;;;;17.77;7.37;;;;;;;19.27;65.82;100447.11;127088;1086;102191;-80
2023/07/24 02:27:34;;;;;;;19.47;9.53;;;;;;;19.28;65.81;100440.91;127119;1086;104059;-81
2023/07/24 02:30:02;;;;;;;17.60;9.70;;;;;;;19.21;66.54;100440.05;127249;1086;103333;-80
2023/07/24 02:32:32;;;;;;;19.03;9.23;;;;;;;19.22;66.62;100440.92;127297;1086;104273;-80
2023/07/24 02:35:00;;;;;;;18.37;9.60;;;;;;;19.26;66.16;100439.13;127627;1086;104322;-80
2023/07/24 02:37:29;;;;;;;19.60;11.00;;;;;;;19.29;66.49;100439.12;127068;1086;102104;-80
2023/07/24 02:39:57;;;;;;;24.07;14.17;;;;;;;19.29;66.33;100436.47;126964;1085;103273;-80
2023/07/24 02:42:26;;;;;;;24.47;15.13;;;;;;;19.25;66.93;100438.26;127110;1086;104107;-80
2023/07/24 02:44:54;;;;;;;28.97;17.90;;;;;;;19.21;67.44;100445.36;126954;1086;102756;-79
2023/07/24 02:47:23;;;;;;;29.60;20.37;;;;;;;19.17;67.40;100456.00;127018;1086;102041;-79
2023/07/24 02:49:52;;;;;;;29.63;21.63;;;;;;;19.09;67.89;100444.45;127045;1086;102089;-80
2023/07/24 02:52:21;;;;;;;28.23;20.03;;;;;;;19.01;68.31;100448.02;126986;1086;102258;-80
2023/07/24 02:54:49;;;;;;;32.00;21.70;;;;;;;18.93;67.98;100449.80;127103;1085;104232;-80
2023/07/24 02:57:18;;;;;;;28.90;20.47;;;;;;;18.90;68.00;100447.14;127039;1086;102109;-80
2023/07/24 02:59:46;;;;;;;29.87;21.13;;;;;;;18.86;68.18;100448.02;127017;1086;101864;-80
2023/07/24 03:02:15;;;;;;;27.60;20.10;;;;;;;18.83;68.67;100456.83;127135;1086;104162;-81
2023/07/24 03:04:44;;;;;;;30.00;19.80;;;;;;;18.82;68.43;100451.51;127122;1086;104175;-80
2023/07/24 03:07:12;;;;;;;27.33;18.20;;;;;;;18.79;68.76;100448.84;127063;1086;101876;-79
2023/07/24 03:09:41;;;;;;;25.20;15.77;;;;;;;18.78;69.26;100455.06;126995;1086;101889;-80
2023/07/24 03:12:11;;;;;;;25.67;15.80;;;;;;;18.77;69.56;100450.63;126962;1086;102548;-79
2023/07/24 03:14:43;;;;;;;21.97;12.17;;;;;;;18.78;69.52;100455.94;126991;1086;104203;-79
2023/07/24 03:17:11;;;;;;;19.83;11.33;;;;;;;18.80;69.96;100445.31;127048;1086;104183;-79
2023/07/24 03:19:40;;;;;;;21.00;11.05;;;;;;;18.80;70.26;100440.00;127081;1085;104269;-78
2023/07/24 03:22:09;;;;;;;18.50;8.95;;;;;;;18.81;70.52;100441.78;127004;1086;104175;-78
2023/07/24 03:24:37;;;;;;;18.93;9.37;;;;;;;18.82;70.65;100446.19;126996;1086;102395;-80
2023/07/24 03:27:06;;;;;;;15.40;8.27;;;;;;;18.85;70.84;100449.80;126964;1086;101858;-80
2023/07/24 03:29:37;;;;;;;15.37;8.07;;;;;;;18.85;71.22;100454.20;127053;1086;101819;-79
2023/07/24 03:32:07;;;;;;;17.00;7.53;;;;;;;18.86;70.96;100450.67;126858;1086;101971;-80
2023/07/24 03:34:35;;;;;;;15.73;7.63;;;;;;;18.90;70.55;100454.20;126984;1086;104087;-79
2023/07/24 03:37:05;;;;;;;12.37;6.63;;;;;;;18.97;70.63;100450.68;126770;1086;104040;-80
2023/07/24 03:39:33;;;;;;;13.93;7.47;;;;;;;18.96;71.21;100459.53;127128;1086;104239;-81
2023/07/24 03:42:02;;;;;;;15.70;7.17;;;;;;;18.95;70.91;100453.34;127219;1085;102268;-81
2023/07/24 03:44:30;;;;;;;13.33;6.70;;;;;;;18.94;71.25;100466.63;127208;1086;104210;-81
2023/07/24 03:46:59;;;;;;;14.73;6.97;;;;;;;18.92;71.22;100460.44;127121;1085;104155;-80
2023/07/24 03:49:27;;;;;;;11.60;6.60;;;;;;;18.91;70.54;100455.99;126996;1086;101853;-80
2023/07/24 03:51:56;;;;;;;18.37;7.07;;;;;;;18.95;71.43;100457.78;127042;1086;104229;-79
2023/07/24 03:54:24;;;;;;;15.90;7.20;;;;;;;19.01;71.23;100457.75;127060;1086;104168;-80
2023/07/24 03:56:53;;;;;;;13.83;6.80;;;;;;;19.02;71.23;100463.07;127126;1086;104322;-80
2023/07/24 03:59:22;;;;;;;11.63;6.03;;;;;;;19.06;71.42;100455.09;127036;1086;104313;-82
2023/07/24 04:01:50;;;;;;;12.13;6.20;;;;;;;19.08;71.34;100453.34;127149;1086;104258;-85
2023/07/24 04:04:19;;;;;;;13.57;7.13;;;;;;;19.09;71.35;100456.00;127235;1085;103332;-81
2023/07/24 04:06:47;;;;;;;12.97;6.40;;;;;;;19.14;70.58;100456.00;127123;1086;103017;-84
2023/07/24 04:09:16;;;;;;;14.70;6.57;;;;;;;19.18;71.32;100449.77;127038;1086;104232;-84
2023/07/24 04:11:45;;;;;;;14.53;6.10;;;;;;;19.22;70.82;100447.11;127100;1086;102391;-83
2023/07/24 04:14:14;;;;;;;13.97;6.87;;;;;;;19.28;70.99;100446.23;126902;1086;104370;-83
2023/07/24 04:16:42;;;;;;;13.70;6.70;;;;;;;19.32;71.15;100452.42;127805;1085;104162;-84
2023/07/24 04:19:11;;;;;;;13.90;6.47;;;;;;;19.36;70.90;100454.21;127062;1086;104149;-83
2023/07/24 04:21:39;;;;;;;17.70;7.10;;;;;;;19.39;71.21;100446.23;127065;1086;104200;-84
2023/07/24 04:24:10;;;;;;;13.40;6.90;;;;;;;19.44;70.77;100443.56;127019;1086;104394;-83
2023/07/24 04:26:39;;;;;;;17.00;6.60;;;;;;;19.47;71.16;100451.53;126871;1086;104321;-84
2023/07/24 04:29:08;;;;;;;12.70;6.53;;;;;;;19.48;70.62;100443.55;126897;1086;101809;-83
2023/07/24 04:31:37;;;;;;;18.03;7.00;;;;;;;19.52;71.48;100449.74;127281;1086;101770;-84
2023/07/24 04:34:05;;;;;;;14.17;6.57;;;;;;;19.55;71.30;100452.40;127178;1086;101795;-82
2023/07/24 04:36:34;;;;;;;19.00;6.77;;;;;;;19.61;70.57;100448.85;127282;1086;101830;-80
2023/07/24 04:39:02;;;;;;;14.20;6.63;;;;;;;19.66;70.79;100447.93;127196;1086;102104;-82
2023/07/24 04:41:31;;;;;;;15.97;7.27;;;;;;;19.69;71.26;100450.59;127165;1086;104188;-79
2023/07/24 04:43:59;;;;;;;15.57;7.00;;;;;;;19.72;70.18;100447.91;127034;1086;104201;-80
2023/07/24 04:46:28;;;;;;;13.30;6.10;;;;;;;19.77;70.40;100453.27;127071;1084;104165;-82
2023/07/24 04:48:57;;;;;;;12.53;6.40;;;;;;;19.81;70.97;100449.71;127133;1086;102040;-80
2023/07/24 04:51:25;;;;;;;20.73;6.70;;;;;;;19.86;70.65;100449.70;127254;1086;102664;-81
2023/07/24 04:53:54;;;;;;;12.87;6.27;;;;;;;19.94;70.47;100453.21;127502;1086;104270;-82
2023/07/24 04:56:23;;;;;;;13.50;6.20;;;;;;;20.02;69.86;100451.39;128124;1085;101935;-82
2023/07/24 04:58:52;;;;;;;14.80;6.23;;;;;;;20.12;70.15;100446.94;127230;1085;104210;-82
2023/07/24 05:01:21;;;;;;;17.90;6.37;;;;;;;20.19;70.58;100446.00;127234;1086;102437;-80
2023/07/24 05:03:49;;;;;;;15.53;6.40;;;;;;;20.27;69.07;100457.53;127109;1086;104218;-80
2023/07/24 05:06:18;;;;;;;14.53;6.83;;;;;;;20.37;69.92;100452.16;127306;1086;102855;-79
2023/07/24 05:08:47;;;;;;;13.93;6.10;;;;;;;20.43;69.06;100449.45;127178;1085;104161;-78
2023/07/24 05:11:16;;;;;;;12.20;6.00;;;;;;;20.50;69.52;100444.97;127375;1086;102788;-82
2023/07/24 05:13:45;;;;;;;13.00;6.20;;;;;;;20.55;69.40;100446.69;127230;1086;104258;-80
2023/07/24 05:16:13;;;;;;;17.57;6.60;;;;;;;20.64;68.28;100448.42;127407;1086;102148;-80
2023/07/24 05:18:42;;;;;;;14.93;6.37;;;;;;;20.72;69.07;100443.08;127343;1086;104081;-80
2023/07/24 05:21:11;;;;;;;19.07;6.50;;;;;;;20.77;68.36;100444.83;127528;1086;101990;-79
2023/07/24 05:23:39;;;;;;;17.33;6.40;;;;;;;20.85;68.24;100435.86;127249;1086;104216;-79
2023/07/24 05:26:08;;;;;;;15.23;6.50;;;;;;;20.93;67.72;100442.05;127396;1085;102598;-81
2023/07/24 05:28:38;;;;;;;16.33;5.90;;;;;;;21.00;68.28;100436.66;127341;1086;101813;-79
2023/07/24 05:31:07;;;;;;;10.70;5.50;;;;;;;21.04;67.03;100429.50;127855;1085;102002;-78
2023/07/24 05:33:36;;;;;;;10.97;5.50;;;;;;;21.11;67.03;100428.53;127907;1086;102087;-79
2023/07/24 05:36:07;;;;;;;12.67;6.07;;;;;;;21.19;66.66;100426.70;127280;1086;102497;-78
2023/07/24 05:38:38;;;;;;;14.53;6.40;;;;;;;21.28;66.61;100432.84;127301;1086;102794;-80
2023/07/24 05:41:07;;;;;;;12.47;5.47;;;;;;;21.39;66.03;100430.06;127966;1086;101758;-77
2023/07/24 05:43:36;;;;;;;13.37;6.10;;;;;;;21.50;66.40;100423.77;127473;1086;104057;-82
2023/07/24 05:46:04;;;;;;;12.23;5.83;;;;;;;21.64;65.71;100422.72;126878;1086;104146;-77
2023/07/24 05:48:33;;;;;;;16.93;5.87;;;;;;;21.75;65.35;100433.28;126586;1086;101871;-76
2023/07/24 05:51:03;;;;;;;15.80;6.47;;;;;;;21.86;65.10;100428.69;126643;1086;104191;-77
2023/07/24 05:53:32;;;;;;;12.10;6.10;;;;;;;21.98;65.18;100430.34;126751;1086;104389;-80
2023/07/24 05:56:01;;;;;;;13.50;5.80;;;;;;;22.09;65.54;100423.06;126866;1086;102207;-78
2023/07/24 05:58:30;;;;;;;15.70;6.23;;;;;;;22.19;64.89;100419.38;127545;1085;102193;-83
2023/07/24 06:01:02;;;;;;;12.43;6.07;;;;;;;22.30;64.87;100412.98;128025;1086;101793;-80
2023/07/24 06:03:31;;;;;;;11.33;5.70;;;;;;;22.39;64.33;100411.12;127897;1085;102179;-80
2023/07/24 06:06:00;;;;;;;10.90;5.43;;;;;;;22.51;64.45;100403.81;127304;1087;102034;-80
2023/07/24 06:08:30;;;;;;;15.20;6.20;;;;;;;22.61;64.21;100406.33;127459;1086;104219;-79
2023/07/24 06:10:59;;;;;;;13.30;5.53;;;;;;;22.71;63.65;100395.48;128339;1085;102064;-79
2023/07/24 06:13:35;;;;;;;16.87;5.87;;;;;;;22.82;64.05;100385.48;127057;1086;104191;-78
2023/07/24 06:16:12;;;;;;;14.83;5.70;;;;;;;22.95;63.64;100400.44;127809;1086;104063;-80
2023/07/24 06:18:54;;;;;;;16.43;6.23;;;;;;;23.05;63.20;100390.45;128336;1085;102586;-84
2023/07/24 06:21:33;;;;;;;18.30;6.13;;;;;;;23.13;62.87;100393.02;127039;1086;104213;-75
2023/07/24 06:24:04;;;;;;;17.20;5.93;;;;;;;23.24;63.02;100384.80;127195;1086;102491;-82
2023/07/24 06:26:34;;;;;;;10.60;5.40;;;;;;;23.35;62.81;100384.60;127403;1086;102290;-78
2023/07/24 06:29:18;;;;;;;14.73;5.53;;;;;;;23.45;62.09;100387.08;127267;1085;104210;-78
2023/07/24 06:32:19;;;;;;;12.30;5.80;;;;;;;23.61;61.23;100384.97;128278;1086;102314;-81
2023/07/24 06:34:55;;;;;;;12.47;5.67;;;;;;;23.75;61.73;100381.11;127817;1086;101813;-86
2023/07/24 06:37:34;;;;;;;11.43;5.30;;;;;;;23.90;60.70;100383.51;128126;1085;111067;-81
2023/07/24 06:40:09;;;;;;;14.17;5.70;;;;;;;24.01;60.15;100373.47;127953;1085;101719;-80
2023/07/24 06:42:40;;;;;;;10.05;5.55;;;;;;;24.14;59.74;100378.56;128058;1085;104153;-77
2023/07/24 06:45:14;;;;;;;17.73;6.10;;;;;;;24.23;60.16;100381.00;127737;1085;104325;-79
2023/07/24 06:47:43;;;;;;;14.90;5.90;;;;;;;24.34;59.07;100378.98;127351;1086;102011;-79
2023/07/24 06:50:12;;;;;;;14.40;5.43;;;;;;;24.47;58.68;100382.25;128121;1086;104197;-78
2023/07/24 06:53:05;;;;;;;12.57;5.40;;;;;;;24.56;58.47;100381.16;127568;1087;101827;-82
2023/07/24 06:55:57;;;;;;;;;;;;;;;;;;;;;
2023/07/24 06:58:58;;;;;;;11.03;5.20;;;;;;;24.87;57.49;100367.89;128276;1085;107021;-84
2023/07/24 07:01:32;;;;;;;10.17;5.27;;;;;;;25.06;56.52;100372.79;127657;1089;101853;-77
2023/07/24 07:04:24;;;;;;;12.30;5.30;;;;;;;25.25;55.80;100370.48;128070;1086;101689;-82
2023/07/24 07:07:28;;;;;;;13.47;5.23;;;;;;;25.46;54.68;100372.62;127683;1086;101845;-78
2023/07/24 07:10:25;;;;;;;;;;;;;;;;;;;;;
2023/07/24 07:12:58;;;;;;;13.27;5.20;;;;;;;25.96;53.74;100376.55;128590;1085;102155;-84
2023/07/24 07:15:26;;;;;;;11.40;4.93;;;;;;;26.14;53.68;100369.78;127675;1086;104174;-81
2023/07/24 07:17:57;;;;;;;9.77;4.80;;;;;;;26.30;53.24;100370.17;127130;1086;104261;-81
2023/07/24 07:20:27;;;;;;;12.60;5.13;;;;;;;26.48;52.26;100371.41;126666;1086;104619;-80
2023/07/24 07:22:56;;;;;;;9.40;4.80;;;;;;;26.67;50.80;100366.33;127063;1086;102173;-85
2023/07/24 07:25:27;;;;;;;6.70;4.20;;;;;;;26.81;50.95;100365.87;127939;1085;101948;-81
2023/07/24 07:28:16;;;;;;;10.10;4.80;;;;;;;26.97;50.46;100367.09;127240;1089;101856;-86
2023/07/24 07:30:57;;;;;;;8.43;4.93;;;;;;;27.16;49.82;100359.27;128679;1085;101718;-80
2023/07/24 07:33:29;;;;;;;10.67;4.90;;;;;;;27.32;50.46;100366.84;127590;1086;101794;-80
2023/07/24 07:36:15;;;;;;;9.93;5.10;;;;;;;27.46;49.40;100355.53;127859;1089;102638;-81
2023/07/24 07:38:44;;;;;;;11.83;5.50;;;;;;;27.61;49.17;100352.27;128359;1085;101667;-79
2023/07/24 07:41:32;;;;;;;15.20;6.13;;;;;;;27.79;48.67;100356.11;127446;1086;104223;-80
2023/07/24 07:44:01;;;;;;;11.73;5.10;;;;;;;27.95;48.75;100351.03;127166;1086;102015;-80
2023/07/24 07:46:33;;;;;;;9.03;5.17;;;;;;;28.13;48.18;100347.61;127452;1086;102190;-81
2023/07/24 07:49:04;;;;;;;10.73;5.07;;;;;;;28.30;46.81;100351.47;127210;1085;104203;-79
2023/07/24 07:51:36;;;;;;;11.70;5.00;;;;;;;28.38;47.13;100352.03;127566;1086;104162;-77
2023/07/24 07:54:06;;;;;;;13.45;5.08;;;;;;;28.47;46.66;100342.66;126837;1086;104181;-80
2023/07/24 07:56:37;;;;;;;13.27;5.33;;;;;;;28.60;46.39;100338.55;128054;1085;101841;-80
2023/07/24 07:59:19;;;;;;;11.90;5.03;;;;;;;28.83;46.10;100342.11;127898;1085;104204;-80
2023/07/24 08:01:50;;;;;;;11.73;5.07;;;;;;;29.04;45.82;100337.59;127453;1086;102166;-80
2023/07/24 08:04:25;;;;;;;10.33;4.97;;;;;;;29.16;45.63;100336.19;127684;1086;104177;-81
2023/07/24 08:06:56;;;;;;;8.50;4.57;;;;;;;29.29;45.17;100331.13;127518;1086;104218;-79
2023/07/24 08:09:25;;;;;;;9.00;4.60;;;;;;;29.42;44.71;100331.45;127794;1086;102074;-79
2023/07/24 08:11:55;;;;;;;9.97;5.00;;;;;;;29.51;44.41;100331.03;127440;1086;101812;-80
2023/07/24 08:14:26;;;;;;;8.03;4.53;;;;;;;29.73;44.25;100330.91;127209;1086;102264;-77
2023/07/24 08:17:03;;;;;;;8.37;4.37;;;;;;;29.99;43.51;100328.84;127059;1086;104214;-77
2023/07/24 08:19:40;;;;;;;7.40;4.10;;;;;;;30.02;43.45;100334.11;127589;1086;102119;-79
2023/07/24 08:22:15;;;;;;;8.87;4.57;;;;;;;30.09;43.31;100322.02;127532;1086;102457;-78
2023/07/24 08:24:45;;;;;;;7.67;4.07;;;;;;;30.26;43.08;100326.61;127550;1086;101988;-78
2023/07/24 08:27:15;;;;;;;7.83;4.60;;;;;;;30.43;42.83;100317.69;127379;1086;102189;-77
2023/07/24 08:29:44;;;;;;;8.57;4.33;;;;;;;30.40;42.13;100318.75;126447;1086;104219;-78
2023/07/24 08:32:15;;;;;;;8.50;4.57;;;;;;;30.26;41.72;100323.91;126786;1086;102301;-79
2023/07/24 08:34:43;;;;;;;13.87;5.40;;;;;;;30.29;41.57;100321.05;127724;1085;102099;-77
2023/07/24 08:37:12;;;;;;;10.07;4.90;;;;;;;30.51;41.53;100317.31;126707;1086;104225;-78
2023/07/24 08:39:46;;;;;;;7.87;4.40;;;;;;;30.80;41.34;100303.16;127012;1086;104191;-82
2023/07/24 08:42:20;;;;;;;9.70;4.77;;;;;;;31.02;41.19;100303.91;127401;1086;104175;-79
2023/07/24 08:44:51;;;;;;;8.30;4.67;;;;;;;30.96;40.17;100305.06;127913;1085;101960;-78
2023/07/24 08:47:30;;;;;;;9.90;5.20;;;;;;;30.85;40.28;100310.17;127607;1086;104146;-84
2023/07/24 08:50:03;;;;;;;7.47;4.30;;;;;;;30.77;39.80;100299.73;127656;1086;104179;-80
2023/07/24 08:52:34;;;;;;;11.83;4.42;;;;;;;30.65;40.00;100301.23;127634;1085;102012;-78
2023/07/24 08:55:11;;;;;;;7.90;5.23;;;;;;;30.70;39.84;100298.29;126712;1086;102112;-78
2023/07/24 08:57:40;;;;;;;10.10;4.93;;;;;;;30.80;39.60;100288.75;126697;1086;104277;-79
2023/07/24 09:00:10;;;;;;;9.03;4.90;;;;;;;31.04;38.94;100297.47;126891;1086;104235;-80
2023/07/24 09:02:40;;;;;;;9.93;4.90;;;;;;;31.15;39.01;100284.22;127511;1086;102175;-83
2023/07/24 09:05:15;;;;;;;9.57;4.63;;;;;;;31.23;38.96;100282.91;127211;1086;104162;-84
2023/07/24 09:07:47;;;;;;;6.43;4.53;;;;;;;31.23;38.91;100282.91;127463;1086;101903;-84
2023/07/24 09:10:20;;;;;;;10.00;4.93;;;;;;;31.18;38.48;100277.73;127652;1086;101842;-83
2023/07/24 09:12:49;;;;;;;7.25;4.50;;;;;;;31.06;38.33;100278.42;127403;1086;104309;-82
2023/07/24 09:15:20;;;;;;;6.87;4.83;;;;;;;30.91;38.08;100280.06;126968;1086;101820;-82
2023/07/24 09:17:50;;;;;;;10.17;5.07;;;;;;;30.69;38.05;100275.77;126450;1086;103682;-85
2023/07/24 09:24:21;;;;;;;9.73;4.50;;;;;;;30.46;38.03;100269.72;128658;1085;101676;-83
2023/07/24 09:27:00;;;;;;;9.43;5.07;;;;;;;30.65;37.89;100258.81;126654;1086;104210;-79
2023/07/24 09:29:33;;;;;;;10.73;5.30;;;;;;;30.88;37.68;100254.00;128868;1085;102953;-82
2023/07/24 09:32:03;;;;;;;8.03;4.90;;;;;;;30.90;37.50;100254.81;127479;1086;103497;-85
2023/07/24 09:34:47;;;;;;;8.13;4.50;;;;;;;30.90;37.53;100248.50;128660;1085;102040;-83
2023/07/24 09:37:37;;;;;;;10.60;4.80;;;;;;;31.06;37.55;100246.77;128550;1086;101861;-86
2023/07/24 09:40:16;;;;;;;6.87;4.27;;;;;;;31.16;36.83;100241.72;128240;1085;101786;-83
2023/07/24 09:42:48;;;;;;;7.97;4.90;;;;;;;31.24;36.62;100234.04;127654;1086;101793;-80
2023/07/24 09:45:36;;;;;;;7.27;4.60;;;;;;;31.36;36.73;100235.21;127082;1086;101957;-80
2023/07/24 09:48:43;;;;;;;7.10;4.67;;;;;;;31.54;36.42;100226.09;128464;1086;101948;-85
2023/07/24 09:52:31;;;;;;;;;;;;;;;;;;;;;
2023/07/24 09:55:30;;;;;;;7.67;4.60;;;;;;;31.60;35.96;100218.56;129090;1086;101852;-85
2023/07/24 09:58:12;;;;;;;7.10;4.40;;;;;;;31.78;35.41;100213.94;128354;1085;104263;-83
2023/07/24 10:00:47;;;;;;;10.27;4.47;;;;;;;32.00;35.40;100211.72;127628;1086;104222;-82
2023/07/24 10:03:26;;;;;;;9.83;4.55;;;;;;;32.24;35.56;100206.73;127932;1085;101883;-80
2023/07/24 10:06:06;;;;;;;6.40;4.33;;;;;;;32.50;35.30;100204.27;127857;1086;101822;-84
2023/07/24 10:08:36;;;;;;;;;;;;;;;32.72;35.29;100214.72;127643;1086;104261;-82
2023/07/24 10:11:07;;;;;;;8.33;4.77;;;;;;;32.89;34.91;100210.10;127750;1089;102103;-82
2023/07/24 10:13:38;;;;;;;9.60;4.60;;;;;;;32.91;34.78;100209.05;128037;1086;102155;-79
2023/07/24 10:16:08;;;;;;;8.10;4.67;;;;;;;32.78;34.54;100202.62;127962;1085;102029;-78
2023/07/24 10:18:46;;;;;;;7.80;4.63;;;;;;;32.62;34.30;100197.23;127195;1086;104225;-81
2023/07/24 10:21:15;;;;;;;6.07;4.40;;;;;;;32.41;34.50;100191.25;127782;1086;102035;-79
2023/07/24 10:23:50;;;;;;;8.07;4.10;;;;;;;32.49;34.41;100191.69;128043;1086;101832;-77
2023/07/24 10:26:42;;;;;;;6.47;4.27;;;;;;;32.59;34.71;100183.84;128392;1086;102076;-80
2023/07/24 10:29:24;;;;;;;9.27;4.50;;;;;;;32.61;33.88;100182.78;128661;1085;102054;-77
2023/07/24 10:31:56;;;;;;;10.20;4.90;;;;;;;32.75;33.91;100181.07;128616;1085;101854;-86
2023/07/24 10:34:37;;;;;;;7.20;4.40;;;;;;;32.71;33.85;100176.78;127697;1086;102362;-83
2023/07/24 10:37:11;;;;;;;6.73;4.27;;;;;;;32.68;33.77;100168.83;128407;1086;101859;-79
2023/07/24 10:39:41;;;;;;;10.13;4.60;;;;;;;32.68;33.17;100172.44;128950;1085;102101;-82
2023/07/24 10:42:13;;;;;;;8.00;4.95;;;;;;;32.58;32.80;100174.83;127019;1086;104159;-81
2023/07/24 10:44:46;;;;;;;6.47;4.47;;;;;;;32.40;32.11;100165.95;127954;1085;104210;-82
2023/07/24 10:47:20;;;;;;;8.60;4.77;;;;;;;32.34;32.54;100160.89;127120;1086;104309;-79
2023/07/24 10:49:53;;;;;;;8.80;4.50;;;;;;;32.22;32.69;100154.35;126602;1086;104181;-81
2023/07/24 10:52:28;;;;;;;;;;;;;;;32.20;32.27;100159.01;128228;1086;103304;-88
2023/07/24 10:55:07;;;;;;;7.40;4.73;;;;;;;32.16;32.83;100156.57;127461;1086;101787;-83
2023/07/24 10:57:41;;;;;;;7.40;4.90;;;;;;;32.23;32.94;100147.97;127384;1086;102098;-85
2023/07/24 11:00:15;;;;;;;7.67;4.70;;;;;;;32.25;32.07;100154.16;127470;1086;104306;-80
2023/07/24 11:02:44;;;;;;;7.53;4.70;;;;;;;32.33;32.41;100152.84;127407;1086;102247;-85
2023/07/24 11:05:21;;;;;;;8.77;4.80;;;;;;;32.42;32.35;100152.28;127379;1086;101980;-81
2023/07/24 11:07:59;;;;;;;9.77;5.20;;;;;;;32.51;32.52;100146.29;128172;1085;101581;-83
2023/07/24 11:10:30;;;;;;;9.00;4.70;;;;;;;32.65;32.15;100142.75;127272;1086;102377;-84
2023/07/24 11:13:03;;;;;;;8.58;4.67;;;;;;;32.77;32.51;100136.55;128025;1085;101806;-80
2023/07/24 11:15:40;;;;;;;11.33;5.00;;;;;;;32.84;32.05;100134.31;127504;1086;102044;-86
2023/07/24 11:18:10;;;;;;;10.67;5.07;;;;;;;32.93;32.51;100131.02;129065;1085;101818;-81
2023/07/24 11:20:43;;;;;;;9.50;4.90;;;;;;;33.06;32.14;100124.80;127378;1086;102019;-80
2023/07/24 11:23:12;;;;;;;6.30;4.53;;;;;;;32.84;32.11;100133.45;127148;1086;104188;-82
2023/07/24 11:25:41;;;;;;;10.10;4.93;;;;;;;32.69;31.84;100132.56;127149;1086;101800;-84
2023/07/24 11:28:14;;;;;;;9.27;5.10;;;;;;;32.47;31.61;100136.57;127032;1086;102329;-82
2023/07/24 11:30:43;;;;;;;;;;;;;;;32.48;32.08;100124.75;128017;1085;102222;-84
2023/07/24 11:33:18;;;;;;;10.57;5.40;;;;;;;32.56;31.81;100119.71;127053;1086;101971;-83
2023/07/24 11:35:47;;;;;;;9.95;5.10;;;;;;;32.52;31.19;100120.89;127256;1086;101961;-82